Time;durP1;ratioP1;P1;durP2;ratioP2;P2;SDS_P1;SDS_P2;PMS_P1;PMS_P2;Temp;Humidity;BMP_temperature;BMP_pressure;BME280_temperature;BME280_humidity;BME280_pressure;Samples;Min_cycle;Max_cycle;Signal;HPM_P1;HPM_P2
2022/05/14 00:01:08;;;;;;;8.53;7.23;;;;;;;12.51;89.93;101406.91;5136611;27;20293;-70
2022/05/14 00:03:38;;;;;;;7.33;6.80;;;;;;;12.41;90.06;101400.28;5136637;27;20590;-70
2022/05/14 00:06:07;;;;;;;8.83;8.13;;;;;;;12.42;90.25;101403.75;5136293;27;20266;-70
2022/05/14 00:08:34;;;;;;;8.80;8.23;;;;;;;12.37;90.53;101399.56;5136118;27;20253;-70
2022/05/14 00:13:47;;;;;;;8.00;7.53;;;;;;;12.22;91.93;101400.13;5136169;27;20234;-70
2022/05/14 00:16:15;;;;;;;7.37;7.17;;;;;;;12.18;92.23;101395.91;5136103;27;20688;-70
2022/05/14 00:18:42;;;;;;;8.13;7.67;;;;;;;12.09;92.80;101401.50;5135531;27;20555;-70
2022/05/14 00:21:09;;;;;;;8.03;7.43;;;;;;;12.12;92.65;101401.38;5135935;27;20232;-70
2022/05/14 00:23:35;;;;;;;6.90;6.70;;;;;;;12.07;92.24;101409.44;5135712;27;20213;-70
2022/05/14 00:26:02;;;;;;;6.67;6.27;;;;;;;12.01;91.72;101406.19;5135541;27;20246;-70
2022/05/14 00:28:29;;;;;;;10.87;7.23;;;;;;;11.93;91.50;101398.59;5135922;27;20215;-70
2022/05/14 00:30:55;;;;;;;6.87;6.77;;;;;;;11.85;91.50;101401.44;5134246;27;20200;-70
2022/05/14 00:33:22;;;;;;;8.43;7.43;;;;;;;11.81;91.68;101396.38;5135561;27;20253;-70
2022/05/14 00:35:49;;;;;;;6.80;6.60;;;;;;;11.74;91.98;101394.84;5135423;27;20241;-70
2022/05/14 00:38:15;;;;;;;7.43;6.70;;;;;;;11.63;92.21;101386.50;5135870;27;20266;-70
2022/05/14 00:40:47;;;;;;;7.43;6.83;;;;;;;11.52;92.56;101387.72;5133974;27;20215;-70
2022/05/14 00:43:15;;;;;;;7.53;7.23;;;;;;;11.48;92.79;101382.63;5135602;27;20172;-70
2022/05/14 00:45:53;;;;;;;7.77;7.47;;;;;;;11.43;92.78;101389.78;5135231;27;20177;-70
2022/05/14 00:48:22;;;;;;;7.40;6.73;;;;;;;11.32;92.65;101392.78;5133882;27;20631;-69
2022/05/14 00:50:52;;;;;;;9.73;7.80;;;;;;;11.19;93.65;101394.97;5133857;27;20192;-69
2022/05/14 00:53:23;;;;;;;6.70;6.50;;;;;;;11.21;93.62;101393.13;5135560;27;20235;-70
2022/05/14 00:55:52;;;;;;;8.87;6.77;;;;;;;11.19;94.15;101388.88;5134039;27;20674;-70
2022/05/14 00:58:37;;;;;;;10.83;7.57;;;;;;;11.20;94.76;101388.81;5133644;27;20215;-70
2022/05/14 01:01:04;;;;;;;8.43;7.77;;;;;;;11.22;95.44;101386.16;5133877;27;20681;-70
2022/05/14 01:03:31;;;;;;;7.83;7.20;;;;;;;11.24;95.20;101389.56;5133636;27;20220;-70
2022/05/14 01:05:59;;;;;;;8.50;7.97;;;;;;;11.26;95.73;101390.38;5133602;27;20237;-70
2022/05/14 01:08:28;;;;;;;7.07;6.87;;;;;;;11.24;96.01;101387.81;5133626;27;20220;-70
2022/05/14 01:10:54;;;;;;;7.27;7.07;;;;;;;11.23;95.72;101393.97;5134395;27;20188;-70
2022/05/14 01:13:22;;;;;;;7.53;6.67;;;;;;;11.18;95.50;101388.00;5133443;27;20271;-70
2022/05/14 01:15:53;;;;;;;6.43;6.23;;;;;;;11.16;95.06;101386.34;5133386;27;20189;-70
2022/05/14 01:18:24;;;;;;;8.47;7.97;;;;;;;11.12;95.50;101385.59;5133694;27;20208;-70
2022/05/14 01:20:55;;;;;;;7.80;7.23;;;;;;;11.10;95.73;101376.91;5133339;27;20299;-70
2022/05/14 01:26:27;;;;;;;10.60;8.00;;;;;;;11.09;96.44;101383.06;5133648;27;20192;-70
2022/05/14 01:26:28;;;;;;;8.23;7.53;;;;;;;11.10;96.86;101381.31;5133343;27;20203;-70
2022/05/14 01:29:21;;;;;;;10.03;7.87;;;;;;;11.12;97.07;101382.09;5133237;27;20295;-69
2022/05/14 01:31:53;;;;;;;8.87;8.13;;;;;;;11.09;97.31;101388.31;5133542;27;20276;-69
2022/05/14 01:34:25;;;;;;;7.87;7.37;;;;;;;11.08;97.31;101386.59;5133178;27;20650;-69
2022/05/14 01:36:52;;;;;;;8.20;7.80;;;;;;;11.08;97.92;101380.50;5133188;27;20184;-69
2022/05/14 01:39:19;;;;;;;8.23;7.60;;;;;;;11.06;98.41;101393.63;5133064;27;20214;-69
2022/05/14 01:41:46;;;;;;;8.93;8.30;;;;;;;11.08;98.70;101389.22;5133845;27;20303;-69
2022/05/14 01:44:13;;;;;;;10.03;9.20;;;;;;;11.08;99.14;101397.09;5133937;27;20560;-69
2022/05/14 01:46:40;;;;;;;8.87;8.30;;;;;;;11.13;99.27;101392.53;5133044;27;20192;-69
2022/05/14 01:49:07;;;;;;;8.40;7.73;;;;;;;11.13;99.38;101394.31;5133232;28;20240;-69
2022/05/14 01:51:34;;;;;;;9.17;8.47;;;;;;;11.09;99.51;101398.81;5132967;28;20191;-69
2022/05/14 01:54:03;;;;;;;9.73;9.10;;;;;;;11.08;99.88;101388.38;5132949;28;20192;-69
2022/05/14 01:56:30;;;;;;;12.43;10.17;;;;;;;11.06;99.93;101384.91;5133216;28;20199;-69
2022/05/14 01:58:57;;;;;;;9.63;8.93;;;;;;;11.10;99.85;101389.16;5132831;28;20212;-69
2022/05/14 02:01:30;;;;;;;10.27;9.50;;;;;;;11.07;100.00;101390.09;5132823;28;20700;-69
2022/05/14 02:04:02;;;;;;;8.97;8.27;;;;;;;11.03;99.42;101394.59;5132925;28;20176;-69
2022/05/14 02:06:30;;;;;;;8.30;7.90;;;;;;;10.99;98.89;101395.59;5132894;28;20189;-69
2022/05/14 02:08:59;;;;;;;8.90;8.40;;;;;;;10.94;99.16;101389.66;5132879;28;20208;-69
2022/05/14 02:11:26;;;;;;;11.57;10.03;;;;;;;10.91;99.61;101384.50;5134325;27;20181;-69
2022/05/14 02:14:01;;;;;;;9.80;9.13;;;;;;;10.90;99.61;101387.19;5133683;28;20204;-69
2022/05/14 02:16:28;;;;;;;10.33;9.23;;;;;;;10.90;100.00;101389.81;5132785;28;20219;-70
2022/05/14 02:18:56;;;;;;;10.60;9.80;;;;;;;10.95;100.00;101394.00;5132713;28;20250;-70
2022/05/14 02:21:24;;;;;;;11.27;10.13;;;;;;;10.96;100.00;101387.84;5133918;27;20205;-70
2022/05/14 02:23:52;;;;;;;10.00;9.37;;;;;;;10.99;100.00;101387.75;5132743;28;20275;-70
2022/05/14 02:26:21;;;;;;;10.23;9.43;;;;;;;10.98;100.00;101393.03;5132474;28;20204;-70
2022/05/14 02:28:47;;;;;;;12.93;8.13;;;;;;;10.89;100.00;101383.72;5132549;28;20209;-69
2022/05/14 02:31:14;;;;;;;10.47;9.67;;;;;;;10.90;100.00;101388.03;5133884;27;20184;-69
2022/05/14 02:33:41;;;;;;;12.17;9.63;;;;;;;10.88;100.00;101389.00;5133834;28;20211;-69
2022/05/14 02:36:10;;;;;;;11.43;10.57;;;;;;;10.75;100.00;101389.38;5132570;28;20188;-69
2022/05/14 02:38:39;;;;;;;12.87;10.63;;;;;;;10.80;100.00;101397.09;5115891;28;20212;-69
2022/05/14 02:41:08;;;;;;;12.53;10.23;;;;;;;10.71;100.00;101393.00;5132440;28;20621;-69
2022/05/14 02:43:36;;;;;;;10.60;9.80;;;;;;;10.67;100.00;101391.38;5136380;27;20271;-69
2022/05/14 02:46:04;;;;;;;9.90;9.20;;;;;;;10.64;100.00;101403.69;5138183;27;20176;-69
2022/05/14 02:48:31;;;;;;;11.60;10.20;;;;;;;10.65;100.00;101401.06;5136266;27;20205;-69
2022/05/14 02:51:00;;;;;;;10.80;9.90;;;;;;;10.63;100.00;101400.22;5136195;27;20185;-69
2022/05/14 02:53:27;;;;;;;10.23;9.57;;;;;;;10.61;100.00;101398.56;5137683;27;20188;-70
2022/05/14 02:55:54;;;;;;;12.43;9.67;;;;;;;10.57;100.00;101392.56;5136166;27;20196;-70
2022/05/14 03:01:07;;;;;;;11.73;10.57;;;;;;;10.53;100.00;101395.34;5136601;27;20208;-69
2022/05/14 03:03:34;;;;;;;12.13;10.87;;;;;;;10.52;100.00;101398.84;5136200;27;20220;-69
2022/05/14 03:06:01;;;;;;;10.07;9.47;;;;;;;10.46;100.00;101397.28;5137210;27;20188;-69
2022/05/14 03:08:28;;;;;;;10.37;9.67;;;;;;;10.39;100.00;101400.97;5135852;27;20204;-69
2022/05/14 03:10:54;;;;;;;9.53;9.10;;;;;;;10.35;100.00;101394.09;5135836;27;20215;-69
2022/05/14 03:13:21;;;;;;;11.17;9.70;;;;;;;10.35;100.00;101391.50;5137103;27;20189;-69
2022/05/14 03:15:48;;;;;;;12.33;10.00;;;;;;;10.37;100.00;101397.56;5135784;27;20196;-69
2022/05/14 03:18:15;;;;;;;9.60;8.87;;;;;;;10.35;100.00;101394.09;5135682;27;20192;-69
2022/05/14 03:20:42;;;;;;;11.00;9.20;;;;;;;10.35;100.00;101396.72;5136915;27;20318;-69
2022/05/14 03:23:09;;;;;;;10.97;10.17;;;;;;;10.38;100.00;101394.03;5135533;27;20196;-69
2022/05/14 03:25:36;;;;;;;10.73;10.00;;;;;;;10.45;100.00;101390.31;5136972;27;20190;-69
2022/05/14 03:28:03;;;;;;;14.87;11.20;;;;;;;10.38;100.00;101396.66;5135466;27;20191;-69
2022/05/14 03:30:30;;;;;;;12.97;10.47;;;;;;;10.48;100.00;101392.84;5135514;27;20803;-70
2022/05/14 03:32:57;;;;;;;16.97;10.93;;;;;;;10.45;100.00;101390.31;5118504;27;20192;-70
2022/05/14 03:35:24;;;;;;;12.40;11.37;;;;;;;10.37;100.00;101381.84;5135352;27;20200;-70
2022/05/14 03:37:50;;;;;;;11.73;10.70;;;;;;;10.45;100.00;101393.81;5135347;27;20559;-70
2022/05/14 03:40:17;;;;;;;12.80;10.83;;;;;;;10.37;100.00;101394.94;5135207;27;20301;-70
2022/05/14 03:42:46;;;;;;;12.50;10.33;;;;;;;10.33;100.00;101395.91;5135179;27;20243;-70
2022/05/14 03:45:12;;;;;;;17.10;10.77;;;;;;;10.37;100.00;101395.78;5135449;27;20542;-70
2022/05/14 03:47:40;;;;;;;21.83;11.33;;;;;;;10.46;100.00;101392.03;5135126;27;20559;-69
2022/05/14 03:50:07;;;;;;;20.70;10.33;;;;;;;10.47;100.00;101398.97;5136365;27;20612;-69
2022/05/14 03:52:33;;;;;;;12.47;10.03;;;;;;;10.33;100.00;101396.78;5135023;27;20658;-69
2022/05/14 03:55:00;;;;;;;12.93;10.93;;;;;;;10.38;100.00;101401.88;5134410;27;20215;-69
2022/05/14 03:57:26;;;;;;;10.43;9.57;;;;;;;10.31;100.00;101398.59;5136742;27;20661;-69
2022/05/14 03:59:53;;;;;;;14.67;9.40;;;;;;;10.33;100.00;101398.53;5135038;27;20207;-69
2022/05/14 04:02:21;;;;;;;11.07;10.00;;;;;;;10.28;100.00;101393.41;5136060;27;20205;-69
2022/05/14 04:04:49;;;;;;;17.90;10.13;;;;;;;10.30;100.00;101401.25;5117795;27;20282;-70
2022/05/14 04:07:18;;;;;;;9.20;8.50;;;;;;;10.30;100.00;101396.03;5134769;27;20284;-70
2022/05/14 04:09:45;;;;;;;14.13;9.43;;;;;;;10.42;100.00;101400.88;5134690;27;20221;-70
2022/05/14 04:12:12;;;;;;;11.27;9.17;;;;;;;10.42;100.00;101400.88;5134975;27;20179;-70
2022/05/14 04:14:38;;;;;;;9.20;8.30;;;;;;;10.34;100.00;101402.88;5136551;27;20258;-70
2022/05/14 04:17:05;;;;;;;9.90;9.10;;;;;;;10.38;100.00;101404.50;5135844;27;20696;-70
2022/05/14 04:19:32;;;;;;;10.23;8.20;;;;;;;10.50;100.00;101405.88;5117467;27;20263;-70
2022/05/14 04:21:59;;;;;;;9.47;8.87;;;;;;;10.46;100.00;101407.75;5117521;27;20229;-70
2022/05/14 04:24:27;;;;;;;10.07;9.30;;;;;;;10.46;100.00;101413.84;5134480;27;20212;-70
2022/05/14 04:26:55;;;;;;;13.17;8.30;;;;;;;10.47;100.00;101417.31;5134878;27;20194;-70
2022/05/14 04:29:22;;;;;;;9.23;8.33;;;;;;;10.54;100.00;101413.59;5134440;27;20222;-70
2022/05/14 04:31:51;;;;;;;9.90;8.43;;;;;;;10.55;99.27;101417.09;5118450;27;20626;-69
2022/05/14 04:34:18;;;;;;;16.10;8.67;;;;;;;10.57;99.22;101416.13;5134149;27;20217;-69
2022/05/14 04:36:44;;;;;;;8.60;7.67;;;;;;;10.71;98.13;101426.19;5134196;27;20248;-69
2022/05/14 04:39:12;;;;;;;8.73;7.93;;;;;;;10.78;97.67;101421.63;5133985;27;20213;-69
2022/05/14 04:41:38;;;;;;;8.57;7.57;;;;;;;10.78;97.48;101427.72;5134038;27;20211;-69
2022/05/14 04:44:11;;;;;;;20.40;7.90;;;;;;;10.72;97.57;101439.25;5134089;27;20217;-70
2022/05/14 04:46:38;;;;;;;8.77;7.53;;;;;;;10.70;97.73;101443.66;5133956;27;20198;-70
2022/05/14 04:49:04;;;;;;;7.87;7.37;;;;;;;10.76;97.82;101440.00;5135133;27;20754;-70
2022/05/14 04:51:31;;;;;;;13.20;7.00;;;;;;;10.68;98.25;101436.75;5133862;27;20598;-70
2022/05/14 04:53:57;;;;;;;9.33;7.40;;;;;;;10.66;98.55;101439.44;5133833;27;20191;-70
2022/05/14 04:56:24;;;;;;;12.40;8.23;;;;;;;10.63;98.88;101442.13;5133765;27;20650;-70
2022/05/14 04:58:51;;;;;;;9.10;7.30;;;;;;;10.72;98.09;101446.25;5133627;27;20223;-69
2022/05/14 05:01:17;;;;;;;10.73;7.20;;;;;;;10.83;97.38;101456.41;5133602;27;20219;-69
2022/05/14 05:03:44;;;;;;;14.03;7.57;;;;;;;10.81;97.29;101450.34;5133680;27;20236;-69
2022/05/14 05:06:14;;;;;;;8.07;7.37;;;;;;;10.91;97.04;101454.41;5132822;27;20552;-69
2022/05/14 05:08:42;;;;;;;15.23;8.57;;;;;;;10.87;96.43;101452.78;5133589;27;20284;-69
2022/05/14 05:11:10;;;;;;;7.53;7.33;;;;;;;10.95;95.97;101458.66;5135402;27;20179;-69
2022/05/14 05:13:37;;;;;;;8.23;7.73;;;;;;;11.03;95.23;101464.50;5134787;27;20194;-70
2022/05/14 05:16:04;;;;;;;9.03;8.20;;;;;;;11.19;93.85;101462.25;5135218;27;20195;-70
2022/05/14 05:18:32;;;;;;;8.67;7.73;;;;;;;11.22;93.18;101468.28;5134569;27;20207;-69
2022/05/14 05:20:59;;;;;;;14.43;8.83;;;;;;;11.22;93.35;101467.41;5134551;27;20243;-69
2022/05/14 05:23:26;;;;;;;9.60;7.47;;;;;;;11.21;93.21;101465.69;5133321;27;20192;-69
2022/05/14 05:25:55;;;;;;;11.77;8.03;;;;;;;11.18;93.93;101465.78;5134381;27;20726;-69
2022/05/14 05:28:22;;;;;;;11.17;7.47;;;;;;;11.23;92.77;101469.97;5134723;27;20223;-69
2022/05/14 05:30:49;;;;;;;8.90;7.17;;;;;;;11.24;92.76;101483.94;5134484;27;20187;-69
2022/05/14 05:33:21;;;;;;;8.43;7.87;;;;;;;11.30;92.50;101478.50;5134456;27;20204;-69
2022/05/14 05:35:48;;;;;;;14.47;7.80;;;;;;;11.32;92.73;101471.44;5134771;27;20183;-69
2022/05/14 05:38:15;;;;;;;13.03;6.67;;;;;;;11.40;92.79;101468.56;5134346;27;20241;-69
2022/05/14 05:40:42;;;;;;;7.73;6.77;;;;;;;11.49;91.74;101469.13;5134646;27;20219;-69
2022/05/14 05:43:10;;;;;;;8.20;7.37;;;;;;;11.48;90.57;101477.03;5134504;27;20731;-69
2022/05/14 05:45:38;;;;;;;9.70;8.20;;;;;;;11.58;90.63;101487.19;5134339;27;20196;-69
2022/05/14 05:48:05;;;;;;;11.00;8.80;;;;;;;11.51;91.92;101476.97;5134250;27;20223;-69
2022/05/14 05:50:33;;;;;;;11.33;7.40;;;;;;;11.64;90.84;101480.00;5134559;27;20184;-69
2022/05/14 05:52:59;;;;;;;7.67;7.07;;;;;;;11.70;90.26;101483.28;5134506;27;20173;-69
2022/05/14 05:58:11;;;;;;;16.77;8.57;;;;;;;11.78;89.41;101486.50;5134416;28;20584;-69
2022/05/14 06:00:38;;;;;;;8.40;7.90;;;;;;;11.80;88.55;101481.22;5134159;27;20184;-69
2022/05/14 06:03:05;;;;;;;7.43;6.80;;;;;;;11.89;90.25;101474.84;5134342;27;20272;-69
2022/05/14 06:05:36;;;;;;;11.17;7.70;;;;;;;12.00;89.67;101477.94;5134415;28;20184;-69
2022/05/14 06:08:07;;;;;;;6.97;6.20;;;;;;;12.07;89.52;101484.69;5134288;28;20542;-69
2022/05/14 06:10:34;;;;;;;7.53;6.87;;;;;;;12.19;89.88;101484.25;5134394;27;20202;-69
2022/05/14 06:13:00;;;;;;;8.57;6.83;;;;;;;12.20;89.47;101485.97;5134293;27;20241;-69
2022/05/14 06:15:26;;;;;;;9.80;6.83;;;;;;;12.29;88.90;101484.81;5134638;27;20227;-69
2022/05/14 06:17:53;;;;;;;7.57;7.03;;;;;;;12.34;88.78;101488.09;5136866;27;20193;-69
2022/05/14 06:20:19;;;;;;;7.50;6.63;;;;;;;12.48;88.46;101492.84;5137975;27;20204;-69
2022/05/14 06:22:46;;;;;;;6.70;6.17;;;;;;;12.46;87.90;101492.91;5137982;27;20204;-69
2022/05/14 06:25:13;;;;;;;11.73;7.23;;;;;;;12.56;86.68;101498.66;5138576;27;20216;-69
2022/05/14 06:27:41;;;;;;;9.07;7.67;;;;;;;12.55;87.80;101500.44;5137969;27;20263;-69
2022/05/14 06:30:08;;;;;;;8.07;6.70;;;;;;;12.50;87.17;101496.25;5137857;27;20241;-69
2022/05/14 06:32:35;;;;;;;7.77;6.87;;;;;;;12.52;87.07;101504.97;5138131;27;20669;-69
2022/05/14 06:35:02;;;;;;;12.17;7.70;;;;;;;12.59;86.78;101514.34;5137807;27;20223;-69
2022/05/14 06:37:28;;;;;;;8.60;7.60;;;;;;;12.63;87.08;101510.66;5137736;27;20694;-69
2022/05/14 06:39:55;;;;;;;21.47;7.20;;;;;;;12.77;86.33;101512.78;5137685;27;20200;-69
2022/05/14 06:42:22;;;;;;;11.20;7.07;;;;;;;12.83;86.50;101513.41;5137553;27;20260;-69
2022/05/14 06:44:48;;;;;;;8.77;7.93;;;;;;;12.84;86.24;101515.13;5137678;27;20263;-69
2022/05/14 06:47:15;;;;;;;12.03;7.67;;;;;;;12.85;85.95;101519.44;5137843;27;20651;-69
2022/05/14 06:49:41;;;;;;;8.13;6.97;;;;;;;12.85;85.84;101522.06;5137682;27;20679;-69
2022/05/14 06:52:12;;;;;;;9.33;7.90;;;;;;;12.93;86.32;101521.81;5137991;27;20233;-69
2022/05/14 06:54:42;;;;;;;8.53;7.90;;;;;;;13.05;86.32;101517.84;5137386;27;20176;-69
2022/05/14 06:57:09;;;;;;;12.73;7.07;;;;;;;13.10;85.57;101526.41;5137438;27;20302;-69
2022/05/14 06:59:35;;;;;;;9.30;7.10;;;;;;;13.14;85.81;101518.31;5137583;27;20209;-70
2022/05/14 07:02:03;;;;;;;14.27;6.80;;;;;;;13.26;85.31;101530.19;5137544;27;20206;-70
2022/05/14 07:07:17;;;;;;;7.87;6.70;;;;;;;13.22;86.13;101523.34;5137539;27;20204;-70
2022/05/14 07:09:44;;;;;;;7.47;7.17;;;;;;;13.24;86.00;101521.50;5137160;27;20204;-70
2022/05/14 07:12:10;;;;;;;9.07;7.00;;;;;;;13.42;85.02;101525.16;5137306;27;20208;-69
2022/05/14 07:14:43;;;;;;;8.30;7.33;;;;;;;13.43;84.69;101529.50;5137234;27;20223;-68
2022/05/14 07:17:10;;;;;;;9.03;7.13;;;;;;;13.49;85.59;101516.97;5137081;27;20223;-68
2022/05/14 07:19:38;;;;;;;8.63;7.17;;;;;;;13.43;85.57;101509.34;5137025;27;20743;-68
2022/05/14 07:22:04;;;;;;;18.90;8.30;;;;;;;13.53;85.52;101512.44;5136840;27;20239;-68
2022/05/14 07:24:32;;;;;;;12.30;7.17;;;;;;;13.65;86.02;101511.09;5136894;27;20180;-68
2022/05/14 07:27:02;;;;;;;8.50;7.77;;;;;;;13.82;84.99;101515.66;5136740;27;20188;-68
2022/05/14 07:29:29;;;;;;;9.97;7.17;;;;;;;13.91;84.06;101516.09;5135893;27;20212;-69
2022/05/14 07:31:55;;;;;;;14.43;8.17;;;;;;;13.98;84.24;101503.53;5136665;27;20243;-69
2022/05/14 07:34:22;;;;;;;7.60;6.83;;;;;;;14.10;84.21;101512.69;5136625;27;20184;-69
2022/05/14 07:37:04;;;;;;;8.43;6.93;;;;;;;14.12;85.04;101509.06;5136916;27;20175;-69
2022/05/14 07:39:41;;;;;;;8.37;7.17;;;;;;;14.27;84.73;101504.91;5136723;27;20215;-69
2022/05/14 07:42:13;;;;;;;9.57;7.67;;;;;;;14.25;83.30;101509.41;5135276;27;20207;-69
2022/05/14 07:44:44;;;;;;;14.73;8.10;;;;;;;14.26;83.84;101505.84;5136770;27;20611;-69
2022/05/14 07:47:12;;;;;;;16.47;7.90;;;;;;;14.28;83.64;101503.97;5136696;27;20255;-68
2022/05/14 07:49:40;;;;;;;15.10;8.37;;;;;;;14.25;83.85;101517.31;5136782;27;20208;-68
2022/05/14 07:52:06;;;;;;;13.83;8.50;;;;;;;14.29;83.80;101511.00;5136917;27;20209;-68
2022/05/14 07:54:33;;;;;;;16.33;8.87;;;;;;;14.36;84.23;101509.78;5136586;27;20603;-68
2022/05/14 07:57:00;;;;;;;10.17;8.10;;;;;;;14.42;84.35;101517.41;5136171;27;20215;-68
2022/05/14 07:59:27;;;;;;;16.43;7.83;;;;;;;14.47;83.83;101518.09;5136099;27;20249;-68
2022/05/14 08:01:54;;;;;;;14.70;8.00;;;;;;;14.65;82.91;101521.69;5136370;27;20180;-68
2022/05/14 08:04:20;;;;;;;14.87;8.30;;;;;;;14.56;82.92;101522.94;5136092;27;20599;-68
2022/05/14 08:06:47;;;;;;;12.43;9.47;;;;;;;14.60;83.71;101513.13;5136045;27;20210;-69
2022/05/14 08:09:13;;;;;;;16.40;8.50;;;;;;;14.63;82.92;101520.03;5136171;27;20205;-69
2022/05/14 08:11:40;;;;;;;8.70;7.80;;;;;;;14.68;82.74;101524.19;5136241;27;20180;-69
2022/05/14 08:14:07;;;;;;;13.90;8.53;;;;;;;14.70;82.88;101524.09;5136445;27;20237;-69
2022/05/14 08:16:33;;;;;;;10.37;8.57;;;;;;;14.86;82.16;101512.81;5135833;27;20188;-69
2022/05/14 08:19:00;;;;;;;19.47;7.77;;;;;;;14.93;81.92;101510.75;5135832;27;20260;-69
2022/05/14 08:24:30;;;;;;;14.23;8.33;;;;;;;15.05;81.90;101507.50;5135587;27;20169;-69
2022/05/14 08:27:07;;;;;;;12.83;7.80;;;;;;;15.09;81.40;101517.00;5134351;27;20185;-69
2022/05/14 08:29:40;;;;;;;12.20;7.40;;;;;;;15.18;81.67;101505.16;5135360;27;20265;-69
2022/05/14 08:32:07;;;;;;;8.33;7.60;;;;;;;15.26;82.48;101510.06;5135476;27;20231;-69
2022/05/14 08:34:34;;;;;;;17.13;7.73;;;;;;;15.23;81.09;101504.94;5135672;27;20193;-69
2022/05/14 08:37:04;;;;;;;17.83;7.87;;;;;;;15.34;80.91;101499.97;5135626;27;20188;-69
2022/05/14 08:39:31;;;;;;;19.40;7.97;;;;;;;15.48;81.81;101505.44;5135534;27;20750;-69
2022/05/14 08:41:59;;;;;;;8.57;7.83;;;;;;;15.61;81.50;101509.22;5135241;27;20181;-69
2022/05/14 08:44:32;;;;;;;15.03;7.00;;;;;;;15.65;80.52;101505.50;5135455;27;20181;-69
2022/05/14 08:47:03;;;;;;;15.43;8.20;;;;;;;15.71;80.34;101509.59;5135815;27;20173;-69
2022/05/14 08:49:42;;;;;;;7.83;7.20;;;;;;;15.77;81.29;101504.03;5135273;27;20269;-68
2022/05/14 08:52:16;;;;;;;13.53;7.70;;;;;;;16.07;81.10;101517.44;5135515;27;20177;-69
2022/05/14 08:54:43;;;;;;;22.10;7.20;;;;;;;16.16;79.47;101514.34;5135247;27;20173;-69
2022/05/14 08:57:23;;;;;;;8.60;7.77;;;;;;;16.29;80.06;101505.75;5134495;27;20241;-69
2022/05/14 08:59:54;;;;;;;8.93;7.07;;;;;;;16.48;78.13;101511.78;5132465;27;20735;-69
2022/05/14 09:02:31;;;;;;;6.90;6.57;;;;;;;16.61;78.49;101504.06;5131560;27;20234;-68
2022/05/14 09:05:08;;;;;;;7.67;7.00;;;;;;;16.58;77.01;101513.03;5153684;27;20672;-69
2022/05/14 09:07:36;;;;;;;11.90;7.00;;;;;;;16.64;77.22;101517.13;5154701;27;20183;-70
2022/05/14 09:10:08;;;;;;;7.77;7.07;;;;;;;16.62;76.89;101505.78;5153944;27;20208;-69
2022/05/14 09:12:47;;;;;;;8.23;6.87;;;;;;;16.73;77.96;101493.72;5155340;27;20168;-69
2022/05/14 09:15:15;;;;;;;13.50;7.10;;;;;;;16.79;76.37;101497.81;5154609;27;20181;-69
2022/05/14 09:17:42;;;;;;;18.30;8.53;;;;;;;16.79;77.59;101503.13;5155419;27;20181;-69
2022/05/14 09:20:08;;;;;;;9.20;7.37;;;;;;;16.72;76.74;101512.31;5155522;27;20550;-69
2022/05/14 09:22:47;;;;;;;11.00;6.47;;;;;;;16.96;78.17;101500.38;5155197;27;20211;-68
2022/05/14 09:25:32;;;;;;;10.70;7.60;;;;;;;17.09;75.94;101500.56;5155580;27;20188;-69
2022/05/14 09:28:01;;;;;;;13.20;7.93;;;;;;;17.01;75.70;101498.34;5155279;27;20253;-69
2022/05/14 09:30:35;;;;;;;12.70;7.13;;;;;;;17.10;75.62;101494.31;5155782;27;20248;-69
2022/05/14 09:33:03;;;;;;;18.30;8.40;;;;;;;17.27;76.12;101503.94;5155692;27;20221;-69
2022/05/14 09:35:32;;;;;;;10.20;7.37;;;;;;;17.23;74.86;101500.63;5155693;27;20195;-69
2022/05/14 09:38:08;;;;;;;7.60;6.90;;;;;;;17.25;75.09;101503.19;5155401;27;20168;-69
2022/05/14 09:40:35;;;;;;;7.53;7.00;;;;;;;17.47;77.04;101482.50;5155103;27;20183;-69
2022/05/14 09:43:16;;;;;;;7.30;6.53;;;;;;;17.60;75.46;101486.13;5155229;27;20214;-69
2022/05/14 09:46:10;;;;;;;12.30;8.40;;;;;;;17.71;73.51;101488.16;5155524;27;20275;-69
2022/05/14 09:48:48;;;;;;;18.53;7.03;;;;;;;17.52;74.44;101490.19;5155140;27;20235;-69
2022/05/14 09:51:36;;;;;;;7.87;7.10;;;;;;;17.44;73.90;101492.41;5154648;27;20180;-69
2022/05/14 09:54:18;;;;;;;15.67;8.43;;;;;;;17.38;72.53;101500.72;5155224;27;20221;-69
2022/05/14 09:57:12;;;;;;;21.33;8.17;;;;;;;17.33;73.71;101499.16;5155542;27;20171;-69
2022/05/14 09:59:48;;;;;;;9.37;8.47;;;;;;;17.49;74.45;101500.94;5154678;27;20698;-69
2022/05/14 10:02:25;;;;;;;18.53;9.33;;;;;;;17.57;73.01;101496.91;5155313;27;20183;-69
2022/05/14 10:05:03;;;;;;;21.10;8.80;;;;;;;17.46;73.07;101499.31;5155338;27;20629;-70
2022/05/14 10:07:39;;;;;;;10.17;7.40;;;;;;;17.67;73.34;101494.56;5136848;27;20629;-69
2022/05/14 10:10:30;;;;;;;8.93;6.90;;;;;;;17.67;72.51;101494.56;5155266;27;20211;-69
2022/05/14 10:13:13;;;;;;;12.23;6.67;;;;;;;17.69;70.93;101491.84;5155125;27;20172;-69
2022/05/14 10:15:50;;;;;;;18.80;7.73;;;;;;;17.59;71.56;101502.97;5155000;27;20217;-69
2022/05/14 10:18:38;;;;;;;11.17;8.00;;;;;;;17.55;71.91;101503.22;5154675;27;20168;-68
2022/05/14 10:21:15;;;;;;;11.63;7.23;;;;;;;17.64;72.14;101491.25;5155104;27;20697;-68
2022/05/14 10:26:58;;;;;;;10.63;7.30;;;;;;;18.08;72.07;101492.16;5154634;27;20200;-68
2022/05/14 10:29:33;;;;;;;9.50;8.93;;;;;;;18.15;68.64;101492.66;5154823;27;20565;-68
2022/05/14 10:32:04;;;;;;;14.10;8.27;;;;;;;18.25;69.63;101498.22;5154851;27;20515;-68
2022/05/14 10:34:45;;;;;;;8.67;6.97;;;;;;;18.32;67.99;101494.25;5154837;27;20213;-68
2022/05/14 10:37:32;;;;;;;15.70;7.63;;;;;;;18.28;69.35;101504.19;5154549;27;20220;-68
2022/05/14 10:40:13;;;;;;;14.03;8.60;;;;;;;18.19;68.70;101496.78;5154435;27;20208;-68
2022/05/14 10:42:52;;;;;;;12.13;8.70;;;;;;;18.27;69.40;101491.03;5154745;27;20188;-68
2022/05/14 10:45:22;;;;;;;10.20;7.27;;;;;;;18.26;67.99;101502.56;5154471;27;20198;-68
2022/05/14 10:47:59;;;;;;;10.97;7.80;;;;;;;18.11;69.47;101497.25;5155018;27;20176;-68
2022/05/14 10:50:29;;;;;;;10.17;8.97;;;;;;;18.08;70.24;101492.16;5154841;27;20187;-68
2022/05/14 10:52:58;;;;;;;15.07;10.57;;;;;;;17.94;70.06;101489.47;5154284;27;20214;-69
2022/05/14 10:55:32;;;;;;;14.03;10.13;;;;;;;17.91;67.33;101500.25;5154650;27;20184;-68
2022/05/14 10:58:04;;;;;;;12.20;10.77;;;;;;;18.04;69.56;101503.88;5154682;27;20167;-68
2022/05/14 11:00:40;;;;;;;11.47;10.00;;;;;;;18.38;69.47;101494.72;5135889;27;20277;-69
2022/05/14 11:03:22;;;;;;;16.53;11.07;;;;;;;18.66;67.16;101495.72;5154290;27;20192;-68
2022/05/14 11:06:06;;;;;;;12.57;10.13;;;;;;;18.73;66.65;101494.38;5158233;27;20240;-68
2022/05/14 11:08:41;;;;;;;19.20;11.70;;;;;;;18.81;66.62;101497.41;5157922;27;20219;-69
2022/05/14 11:11:22;;;;;;;12.47;9.50;;;;;;;18.81;66.73;101500.03;5158219;27;20622;-68
2022/05/14 11:13:59;;;;;;;11.20;10.23;;;;;;;18.64;65.43;101502.84;5157991;27;20175;-68
2022/05/14 11:16:45;;;;;;;13.60;10.87;;;;;;;18.90;66.41;101503.91;5157749;27;20622;-68
2022/05/14 11:19:33;;;;;;;10.63;9.70;;;;;;;19.03;64.43;101502.19;5157647;27;20211;-68
2022/05/14 11:22:01;;;;;;;15.60;10.43;;;;;;;19.09;64.25;101500.94;5158286;27;20176;-68
2022/05/14 11:24:41;;;;;;;13.20;10.00;;;;;;;19.15;64.87;101503.22;5157816;27;20669;-68
2022/05/14 11:27:09;;;;;;;11.07;9.93;;;;;;;19.15;63.50;101498.75;5157388;27;20236;-68
2022/05/14 11:29:57;;;;;;;17.50;10.27;;;;;;;19.27;65.19;101506.84;5157603;27;20256;-69
2022/05/14 11:32:25;;;;;;;12.97;9.83;;;;;;;19.46;65.15;101488.75;5157516;27;20626;-68
2022/05/14 11:34:54;;;;;;;9.93;9.03;;;;;;;19.60;62.95;101493.19;5158017;27;20164;-68
2022/05/14 11:37:36;;;;;;;13.87;8.07;;;;;;;19.21;62.64;101502.78;5157748;27;20622;-68
2022/05/14 11:40:28;;;;;;;10.37;8.20;;;;;;;19.23;63.57;101492.94;5157278;27;20199;-68
2022/05/14 11:43:49;;;;;;;9.03;8.30;;;;;;;19.36;64.55;101485.88;5145679;27;20330;-68
2022/05/14 11:46:32;;;;;;;7.80;7.10;;;;;;;19.70;63.56;101495.13;5053570;28;20175;-68
2022/05/14 11:49:22;;;;;;;6.30;5.87;;;;;;;19.72;64.17;101492.38;5157491;27;20233;-69
2022/05/14 11:52:14;;;;;;;6.13;5.73;;;;;;;19.38;63.23;101491.09;5157630;27;20167;-69